createdAt,value
2022-09-15T00:01:51.547Z,100127.50
2022-09-15T00:06:53.111Z,100129.66
2022-09-15T00:11:54.565Z,100129.41
2022-09-15T00:16:56.065Z,100121.88
2022-09-15T00:21:57.709Z,100122.66
2022-09-15T00:26:59.209Z,100134.41
2022-09-15T00:32:00.711Z,100139.25
2022-09-15T00:37:02.320Z,100135.78
2022-09-15T00:42:04.135Z,100137.44
2022-09-15T00:47:22.062Z,100126.69
2022-09-15T00:52:47.939Z,100129.38
2022-09-15T00:57:55.991Z,100163.94
2022-09-15T01:02:57.601Z,100150.53
2022-09-15T01:08:05.592Z,100165.78
2022-09-15T01:13:12.597Z,100164.28
2022-09-15T01:18:35.318Z,100153.84
2022-09-15T01:24:01.550Z,100140.19
2022-09-15T01:29:40.430Z,100126.13
2022-09-15T01:34:50.565Z,100122.69
2022-09-15T01:39:53.876Z,100130.25
2022-09-15T01:45:03.823Z,100130.09
2022-09-15T01:50:10.554Z,100128.44
2022-09-15T01:55:17.909Z,100119.47
2022-09-15T02:00:19.432Z,100123.63
2022-09-15T02:05:42.287Z,100117.47
2022-09-15T02:10:49.032Z,100112.19
2022-09-15T02:15:55.537Z,100110.97
2022-09-15T02:21:31.577Z,100110.13
2022-09-15T02:26:35.714Z,100115.28
2022-09-15T02:31:39.851Z,100106.94
2022-09-15T02:36:42.624Z,100123.00
2022-09-15T02:41:44.243Z,100115.06
2022-09-15T02:46:45.835Z,100103.88
2022-09-15T02:51:47.368Z,100104.28
2022-09-15T02:56:48.808Z,100111.22
2022-09-15T03:01:51.846Z,100119.91
2022-09-15T03:06:53.447Z,100127.22
2022-09-15T03:11:54.869Z,100121.69
2022-09-15T03:16:58.208Z,100123.66
2022-09-15T03:21:59.774Z,100123.94
2022-09-15T03:27:01.206Z,100124.09
2022-09-15T03:32:03.027Z,100116.53
2022-09-15T03:37:04.445Z,100110.94
2022-09-15T03:42:06.036Z,100116.50
2022-09-15T03:47:07.664Z,100119.78
2022-09-15T03:52:09.179Z,100119.25
2022-09-15T03:57:11.261Z,100111.25
2022-09-15T04:02:12.812Z,100097.00
2022-09-15T04:07:14.289Z,100111.34
2022-09-15T04:12:15.677Z,100117.44
2022-09-15T04:17:17.138Z,100113.81
2022-09-15T04:22:18.780Z,100107.53
2022-09-15T04:27:20.239Z,100118.16
2022-09-15T04:32:21.923Z,100125.44
2022-09-15T04:37:23.369Z,100119.47
2022-09-15T04:42:25.005Z,100118.34
2022-09-15T04:47:26.407Z,100120.41
2022-09-15T04:52:27.825Z,100118.69
2022-09-15T04:57:29.256Z,100118.53
2022-09-15T05:02:30.824Z,100118.34
2022-09-15T05:07:32.340Z,100125.50
2022-09-15T05:12:33.770Z,100124.75
2022-09-15T05:17:35.243Z,100134.84
2022-09-15T05:22:41.489Z,100134.00
2022-09-15T05:27:43.502Z,100121.25
2022-09-15T05:32:45.073Z,100124.66
2022-09-15T05:37:46.582Z,100134.53
2022-09-15T05:42:47.985Z,100136.97
2022-09-15T05:47:49.535Z,100136.00
2022-09-15T05:52:52.816Z,100136.25
2022-09-15T05:57:54.456Z,100138.50
2022-09-15T06:02:55.987Z,100139.97
2022-09-15T06:07:57.525Z,100142.69
2022-09-15T06:12:58.979Z,100142.25
2022-09-15T06:18:00.439Z,100145.91
2022-09-15T06:23:01.950Z,100135.78
2022-09-15T06:28:03.415Z,100156.41
2022-09-15T06:33:04.952Z,100152.06
2022-09-15T06:38:06.440Z,100148.69
2022-09-15T06:43:07.873Z,100143.06
2022-09-15T06:48:23.906Z,100138.56
2022-09-15T06:53:29.116Z,100135.09
2022-09-15T06:58:31.144Z,100140.06
2022-09-15T07:03:32.801Z,100143.38
2022-09-15T07:08:34.716Z,100147.13
2022-09-15T07:13:36.701Z,100146.78
2022-09-15T07:18:42.853Z,100141.00
2022-09-15T07:23:45.496Z,100149.75
2022-09-15T07:29:01.324Z,100151.72
2022-09-15T07:34:03.889Z,100156.91
2022-09-15T07:39:05.649Z,100167.13
2022-09-15T07:44:08.276Z,100160.69
2022-09-15T07:49:10.113Z,100162.28
2022-09-15T07:54:11.782Z,100156.97
2022-09-15T07:59:13.329Z,100157.44
2022-09-15T08:04:15.163Z,100167.91
2022-09-15T08:09:17.674Z,100176.41
2022-09-15T08:14:19.200Z,100184.31
2022-09-15T08:19:20.851Z,100190.13
2022-09-15T08:24:22.647Z,100192.94
2022-09-15T08:29:24.098Z,100195.22
2022-09-15T08:34:26.509Z,100182.53
2022-09-15T08:39:27.937Z,100186.72
2022-09-15T08:44:38.412Z,100192.84
2022-09-15T08:50:03.480Z,100201.50
2022-09-15T08:55:12.982Z,100203.53
2022-09-15T09:00:16.530Z,100206.81
2022-09-15T09:05:32.434Z,100211.59
2022-09-15T09:10:43.064Z,100228.63
2022-09-15T09:16:15.110Z,100228.88
2022-09-15T09:21:39.192Z,100218.97
2022-09-15T09:26:40.617Z,100226.47
2022-09-15T09:31:43.165Z,100216.22
2022-09-15T09:36:44.807Z,100230.44
2022-09-15T09:41:47.008Z,100218.56
2022-09-15T09:46:49.198Z,100215.06
2022-09-15T09:51:55.096Z,100219.94
2022-09-15T09:57:16.773Z,100213.56
2022-09-15T10:02:28.683Z,100200.31
2022-09-15T10:07:33.302Z,100186.63
2022-09-15T10:12:40.734Z,100186.16
2022-09-15T10:17:46.055Z,100186.63
2022-09-15T10:22:47.764Z,100187.28
2022-09-15T10:28:02.449Z,100186.34
2022-09-15T10:33:24.607Z,100182.94
2022-09-15T10:38:45.362Z,100182.53
2022-09-15T10:43:54.467Z,100182.09
2022-09-15T10:49:19.072Z,100233.44
2022-09-15T10:54:41.758Z,100235.50
2022-09-15T10:59:51.362Z,100241.41
2022-09-15T11:05:05.528Z,100233.09
2022-09-15T11:10:20.297Z,100220.50
2022-09-15T11:15:33.480Z,100226.19
2022-09-15T11:20:35.027Z,100240.25
2022-09-15T11:25:43.437Z,100252.50
2022-09-15T11:30:55.895Z,100238.78
2022-09-15T11:36:11.218Z,100240.84
2022-09-15T11:41:21.040Z,100225.72
2022-09-15T11:46:44.013Z,100229.44
2022-09-15T11:51:53.895Z,100242.97
2022-09-15T11:56:56.409Z,100233.31
2022-09-15T12:02:00.730Z,100237.09
2022-09-15T12:07:16.193Z,100210.97
2022-09-15T12:12:21.582Z,100230.28
2022-09-15T12:17:31.872Z,100232.50
2022-09-15T12:22:57.529Z,100246.19
2022-09-15T12:28:24.086Z,100234.53
2022-09-15T12:33:44.892Z,100235.75
2022-09-15T12:38:49.440Z,100241.78
2022-09-15T12:43:58.233Z,100244.53
2022-09-15T12:49:03.143Z,100243.69
2022-09-15T12:54:07.411Z,100242.09
2022-09-15T12:59:14.066Z,100235.06
2022-09-15T13:04:43.693Z,100235.81
2022-09-15T13:09:57.614Z,100245.47
2022-09-15T13:15:03.908Z,100245.34
2022-09-15T13:20:15.194Z,100243.91
2022-09-15T13:25:23.251Z,100242.66
2022-09-15T13:30:49.366Z,100266.28
2022-09-15T13:36:02.654Z,100291.25
2022-09-15T13:41:23.307Z,100270.47
2022-09-15T13:46:36.763Z,100263.44
2022-09-15T13:51:43.073Z,100256.78
2022-09-15T13:56:47.256Z,100243.09
2022-09-15T14:01:48.858Z,100250.44
2022-09-15T14:06:55.991Z,100242.59
2022-09-15T14:12:04.952Z,100244.63
2022-09-15T14:17:19.223Z,100231.78
2022-09-15T14:22:27.294Z,100231.31
2022-09-15T14:27:32.545Z,100234.88
2022-09-15T14:32:39.908Z,100225.00
2022-09-15T14:37:41.393Z,100239.66
2022-09-15T14:42:43.257Z,100242.53
2022-09-15T14:47:45.295Z,100243.75
2022-09-15T14:52:48.745Z,100246.16
2022-09-15T14:58:04.109Z,100249.47
2022-09-15T15:03:33.067Z,100249.81
2022-09-15T15:08:41.617Z,100248.38
2022-09-15T15:13:45.712Z,100259.03
2022-09-15T15:18:47.282Z,100256.09
2022-09-15T15:23:50.041Z,100248.69
2022-09-15T15:28:51.800Z,100253.91
2022-09-15T15:33:59.259Z,100256.19
2022-09-15T15:39:04.733Z,100261.72
2022-09-15T15:44:13.708Z,100271.88
2022-09-15T15:49:15.845Z,100269.28
2022-09-15T15:54:17.446Z,100272.63
2022-09-15T15:59:19.840Z,100273.53
2022-09-15T16:04:21.327Z,100271.25
2022-09-15T16:09:22.733Z,100269.44
2022-09-15T16:14:24.205Z,100272.47
2022-09-15T16:19:25.718Z,100260.91
2022-09-15T16:24:28.412Z,100272.25
2022-09-15T16:29:36.098Z,100264.41
2022-09-15T16:34:37.828Z,100270.34
2022-09-15T16:39:39.286Z,100269.47
2022-09-15T16:44:40.680Z,100268.47
2022-09-15T16:49:42.601Z,100263.78
2022-09-15T16:54:44.636Z,100263.19
2022-09-15T16:59:46.096Z,100263.34
2022-09-15T17:04:47.516Z,100266.94
2022-09-15T17:09:49.797Z,100266.78
2022-09-15T17:14:51.419Z,100268.91
2022-09-15T17:19:52.848Z,100268.81
2022-09-15T17:24:54.317Z,100261.44
2022-09-15T17:29:56.253Z,100273.84
2022-09-15T17:34:57.801Z,100269.91
2022-09-15T17:39:59.340Z,100270.00
2022-09-15T17:45:01.035Z,100269.19
2022-09-15T17:50:02.595Z,100274.31
2022-09-15T17:55:12.254Z,100272.78
2022-09-15T18:00:15.105Z,100277.16
2022-09-15T18:05:26.928Z,100276.97
2022-09-15T18:10:30.080Z,100277.94
2022-09-15T18:15:33.979Z,100279.31
2022-09-15T18:20:36.738Z,100280.44
2022-09-15T18:25:38.252Z,100288.19
2022-09-15T18:30:42.081Z,100281.28
2022-09-15T18:35:44.219Z,100276.16
2022-09-15T18:40:53.164Z,100283.22
2022-09-15T18:46:00.491Z,100287.53
2022-09-15T18:51:02.144Z,100294.28
2022-09-15T18:56:11.737Z,100289.25
2022-09-15T19:01:13.297Z,100293.34
2022-09-15T19:06:14.803Z,100298.25
2022-09-15T19:11:17.220Z,100293.72
2022-09-15T19:16:22.756Z,100295.81
2022-09-15T19:21:27.379Z,100304.22
2022-09-15T19:26:29.583Z,100295.41
2022-09-15T19:31:31.064Z,100297.91
2022-09-15T19:36:32.636Z,100294.69
2022-09-15T19:41:34.217Z,100295.50
2022-09-15T19:46:35.667Z,100300.63
2022-09-15T19:51:37.219Z,100302.81
2022-09-15T19:56:38.725Z,100297.72
2022-09-15T20:01:40.330Z,100297.91
2022-09-15T20:06:42.196Z,100302.41
2022-09-15T20:11:43.629Z,100304.84
2022-09-15T20:16:45.158Z,100311.28
2022-09-15T20:21:51.226Z,100301.63
2022-09-15T20:26:53.181Z,100311.66
2022-09-15T20:31:54.674Z,100313.72
2022-09-15T20:36:56.166Z,100317.63
2022-09-15T20:41:58.013Z,100318.09
2022-09-15T20:46:59.536Z,100325.88
2022-09-15T20:52:01.093Z,100316.44
2022-09-15T20:57:02.608Z,100317.16
2022-09-15T21:02:05.979Z,100318.47
2022-09-15T21:07:07.510Z,100314.16
2022-09-15T21:12:09.654Z,100320.06
2022-09-15T21:17:11.100Z,100308.88
2022-09-15T21:22:12.488Z,100312.88
2022-09-15T21:27:29.935Z,100319.22
2022-09-15T21:32:32.651Z,100317.38
2022-09-15T21:37:34.382Z,100317.00
2022-09-15T21:42:35.903Z,100312.16
2022-09-15T21:47:37.527Z,100324.44
2022-09-15T21:52:39.132Z,100322.75
2022-09-15T21:57:40.558Z,100328.16
2022-09-15T22:02:42.060Z,100317.53
2022-09-15T22:07:43.924Z,100322.00
2022-09-15T22:12:45.482Z,100336.00
2022-09-15T22:17:46.952Z,100333.81
2022-09-15T22:22:48.601Z,100333.13
2022-09-15T22:27:50.101Z,100323.63
2022-09-15T22:32:53.153Z,100319.59
2022-09-15T22:37:54.596Z,100345.47
2022-09-15T22:42:56.030Z,100321.34
2022-09-15T22:47:57.429Z,100308.47
2022-09-15T22:52:58.847Z,100305.03
2022-09-15T22:58:00.305Z,100303.00
2022-09-15T23:03:01.775Z,100305.88
2022-09-15T23:08:03.743Z,100307.56
2022-09-15T23:13:05.433Z,100310.47
2022-09-15T23:18:06.940Z,100315.91
2022-09-15T23:23:08.391Z,100330.59
2022-09-15T23:28:09.794Z,100320.63
2022-09-15T23:33:11.208Z,100290.59
2022-09-15T23:38:13.011Z,100286.56
2022-09-15T23:43:15.049Z,100299.06
2022-09-15T23:48:16.815Z,100292.06
2022-09-15T23:53:19.094Z,100282.53
2022-09-15T23:58:20.515Z,100279.59
